This is the latest recevied weather packets stored in our database for station/object SQ2CET-13. If no packets are shown the sender has not sent any weather packets the latest 10 day(s).
| Time | Temp. | Humidity | Pressure | Rain* | Wind** | Luminosity | Snow |
|---|---|---|---|---|---|---|---|
| 1777408278 | 2.78° C | 87% | 1029.6 hPa | 0 mm | - | 0 W/m² | - |
| 1777406422 | 2.78° C | 81% | 1029.3 hPa | 0 mm | - | 0 W/m² | - |
| 1777400470 | 5° C | 61% | 1028.9 hPa | 0 mm | - | 0 W/m² | - |
| 1777399830 | 5.56° C | 58% | 1028.8 hPa | 0 mm | - | 3 W/m² | - |
| 1777398670 | 7.22° C | 52% | 1028.8 hPa | 0 mm | - | 11 W/m² | - |
| 1777396259 | 8.89° C | 44% | 1028.5 hPa | 0 mm | - | 29 W/m² | - |
| 1777389063 | 8.89° C | 42% | 1028.3 hPa | 0 mm | - | 241 W/m² | - |
| 1777384254 | 9.44° C | 41% | 1028.2 hPa | 0 mm | - | 391 W/m² | - |
| 1777377022 | 9.44° C | 44% | 1028 hPa | 0 mm | - | 474 W/m² | - |
| 1777373478 | 9.44° C | 47% | 1027.9 hPa | 0 mm | - | 626 W/m² | - |
| 1777370471 | 8.33° C | 52% | 1028.1 hPa | 0 mm | - | 341 W/m² | - |
| 1777362078 | 7.22° C | 56% | 1028 hPa | 0 mm | - | 568 W/m² | - |
| 1777360222 | 6.11° C | 65% | 1028.1 hPa | 0 mm | - | 227 W/m² | - |
| 1777359647 | 5.56° C | 65% | 1028.2 hPa | 0 mm | - | 335 W/m² | - |
| 1777358431 | 5° C | 68% | 1028.2 hPa | 0 mm | - | 254 W/m² | - |
| 1777353622 | 2.22° C | 84% | 1027.7 hPa | 0 mm | - | 65 W/m² | - |
| 1777344079 | -0.56° C | 89% | 1027.2 hPa | 0 mm | - | 0 W/m² | - |
| 1777341071 | -0.56° C | 89% | 1027.1 hPa | 0 mm | - | 0 W/m² | - |
| 1777340431 | -1.11° C | 89% | 1026.9 hPa | 0 mm | - | 0 W/m² | - |
| 1777330254 | 0.56° C | 84% | 1026.8 hPa | 0 mm | - | 0 W/m² | - |
| 1777328463 | 0.56° C | 85% | 1026.7 hPa | 0 mm | - | 0 W/m² | - |
| 1777327822 | 0.56° C | 85% | 1026.7 hPa | 0 mm | - | 0 W/m² | - |
| 1777326031 | 1.67° C | 85% | 1026.7 hPa | 0 mm | - | 0 W/m² | - |
| 1777325454 | 1.67° C | 84% | 1026.6 hPa | 0 mm | - | 0 W/m² | - |
| 1777324239 | 1.67° C | 82% | 1026.6 hPa | 0 mm | - | 0 W/m² | - |
* Rain latest hour (hover to see other rain measurements)
** Current wind speed in m/s (hover to see current wind gust speed)